sensor_id;sensor_type;location;lat;lon;timestamp;noise_LAeq;noise_LA_min;noise_LA_max;noise_LA01;noise_LA95
79288;Laerm;68737;53.946;27.634;2023-09-12T00:00:30;42.962708;38.263405;55.848930;;
79288;Laerm;68737;53.946;27.634;2023-09-12T00:03:00;40.592865;38.335999;47.895889;;
79288;Laerm;68737;53.946;27.634;2023-09-12T00:05:30;42.522301;38.950523;50.422424;;
79288;Laerm;68737;53.946;27.634;2023-09-12T00:08:00;44.036385;39.389702;52.501244;;
79288;Laerm;68737;53.946;27.634;2023-09-12T00:10:31;47.644783;39.816399;61.519150;;
79288;Laerm;68737;53.946;27.634;2023-09-12T00:13:00;42.503151;38.954262;52.171432;;
79288;Laerm;68737;53.946;27.634;2023-09-12T00:15:30;46.145592;39.322617;64.196373;;
79288;Laerm;68737;53.946;27.634;2023-09-12T00:18:00;42.094086;39.076637;49.036835;;
79288;Laerm;68737;53.946;27.634;2023-09-12T00:20:30;42.534866;38.926514;51.829521;;
79288;Laerm;68737;53.946;27.634;2023-09-12T00:23:00;43.879318;39.596817;51.557487;;
79288;Laerm;68737;53.946;27.634;2023-09-12T00:25:30;43.036148;39.365936;50.362823;;
79288;Laerm;68737;53.946;27.634;2023-09-12T00:28:00;42.970078;38.799225;60.457867;;
79288;Laerm;68737;53.946;27.634;2023-09-12T00:30:30;43.594475;39.618324;55.286789;;
79288;Laerm;68737;53.946;27.634;2023-09-12T00:33:00;42.263298;39.217735;46.678520;;
79288;Laerm;68737;53.946;27.634;2023-09-12T00:35:30;43.224960;38.983109;57.154953;;
79288;Laerm;68737;53.946;27.634;2023-09-12T00:38:00;42.304924;38.032257;55.995522;;
79288;Laerm;68737;53.946;27.634;2023-09-12T00:40:30;40.713692;38.024925;49.428230;;
79288;Laerm;68737;53.946;27.634;2023-09-12T00:43:00;41.953827;38.438110;46.898109;;
79288;Laerm;68737;53.946;27.634;2023-09-12T00:45:30;45.284798;38.930008;56.982399;;
79288;Laerm;68737;53.946;27.634;2023-09-12T00:48:00;47.174629;40.437828;57.373505;;
79288;Laerm;68737;53.946;27.634;2023-09-12T00:50:30;50.142776;40.868965;64.833755;;
79288;Laerm;68737;53.946;27.634;2023-09-12T00:53:00;44.673874;41.135529;48.718353;;
79288;Laerm;68737;53.946;27.634;2023-09-12T00:55:31;44.634117;40.117027;48.879395;;
79288;Laerm;68737;53.946;27.634;2023-09-12T00:58:00;43.048225;39.852242;51.223618;;
79288;Laerm;68737;53.946;27.634;2023-09-12T01:00:30;42.736351;39.295013;50.454964;;
79288;Laerm;68737;53.946;27.634;2023-09-12T01:03:01;41.469810;38.387039;53.646126;;
79288;Laerm;68737;53.946;27.634;2023-09-12T01:05:30;43.637970;39.062660;52.509048;;
79288;Laerm;68737;53.946;27.634;2023-09-12T01:08:00;43.027603;39.248466;54.324997;;
79288;Laerm;68737;53.946;27.634;2023-09-12T01:10:30;44.908669;39.407875;53.283119;;
79288;Laerm;68737;53.946;27.634;2023-09-12T01:13:00;43.400520;38.838913;52.846138;;
79288;Laerm;68737;53.946;27.634;2023-09-12T01:15:30;45.034157;39.655907;59.504047;;
79288;Laerm;68737;53.946;27.634;2023-09-12T01:18:00;44.015511;40.332352;50.597649;;
79288;Laerm;68737;53.946;27.634;2023-09-12T01:20:31;48.564201;40.761749;59.883801;;
79288;Laerm;68737;53.946;27.634;2023-09-12T01:28:01;50.677299;40.040504;63.671227;;
79288;Laerm;68737;53.946;27.634;2023-09-12T01:30:30;47.748260;40.061127;61.782028;;
79288;Laerm;68737;53.946;27.634;2023-09-12T01:33:00;45.887344;39.532028;62.098007;;
79288;Laerm;68737;53.946;27.634;2023-09-12T01:35:30;43.957443;39.312714;50.286713;;
79288;Laerm;68737;53.946;27.634;2023-09-12T01:38:00;45.302391;38.951210;57.962799;;
79288;Laerm;68737;53.946;27.634;2023-09-12T01:43:02;45.018463;39.877335;56.402122;;
79288;Laerm;68737;53.946;27.634;2023-09-12T01:45:30;42.539139;38.928230;49.774239;;
79288;Laerm;68737;53.946;27.634;2023-09-12T01:48:00;42.170105;39.096832;49.229935;;
79288;Laerm;68737;53.946;27.634;2023-09-12T01:50:30;45.059547;39.183289;57.867523;;
79288;Laerm;68737;53.946;27.634;2023-09-12T01:53:00;43.293892;40.234642;48.037056;;
79288;Laerm;68737;53.946;27.634;2023-09-12T01:55:30;45.877541;40.080711;57.479980;;
79288;Laerm;68737;53.946;27.634;2023-09-12T01:58:00;43.885742;40.125603;55.499748;;
79288;Laerm;68737;53.946;27.634;2023-09-12T02:00:30;44.039017;39.361748;55.358727;;
79288;Laerm;68737;53.946;27.634;2023-09-12T02:03:03;42.328705;38.850128;52.395882;;
79288;Laerm;68737;53.946;27.634;2023-09-12T02:05:30;47.537720;39.911598;60.131565;;
79288;Laerm;68737;53.946;27.634;2023-09-12T02:08:00;47.448288;41.109253;56.259506;;
79288;Laerm;68737;53.946;27.634;2023-09-12T02:10:30;49.727859;40.117264;61.340473;;
79288;Laerm;68737;53.946;27.634;2023-09-12T02:13:00;48.327812;40.377480;60.720161;;
79288;Laerm;68737;53.946;27.634;2023-09-12T02:15:30;42.620819;39.225952;48.234810;;
79288;Laerm;68737;53.946;27.634;2023-09-12T02:18:00;47.493492;39.987190;63.379189;;
79288;Laerm;68737;53.946;27.634;2023-09-12T02:20:31;45.742279;40.607513;55.807709;;
79288;Laerm;68737;53.946;27.634;2023-09-12T02:23:00;46.478462;41.012970;58.342361;;
79288;Laerm;68737;53.946;27.634;2023-09-12T02:25:30;46.820473;41.115936;57.797470;;
79288;Laerm;68737;53.946;27.634;2023-09-12T02:28:00;48.249268;41.232414;59.804012;;
79288;Laerm;68737;53.946;27.634;2023-09-12T02:30:30;44.275978;39.338371;55.571503;;
79288;Laerm;68737;53.946;27.634;2023-09-12T02:33:00;44.722481;40.519974;53.365906;;
79288;Laerm;68737;53.946;27.634;2023-09-12T02:35:30;49.016266;41.533455;60.684345;;
79288;Laerm;68737;53.946;27.634;2023-09-12T02:38:00;49.082573;42.900879;60.796307;;
79288;Laerm;68737;53.946;27.634;2023-09-12T02:40:30;45.762253;40.433014;56.509254;;
79288;Laerm;68737;53.946;27.634;2023-09-12T02:43:00;45.791695;40.887360;54.383995;;
79288;Laerm;68737;53.946;27.634;2023-09-12T02:45:30;44.824791;40.774673;53.740479;;
79288;Laerm;68737;53.946;27.634;2023-09-12T02:48:00;47.130775;41.850906;57.114517;;
79288;Laerm;68737;53.946;27.634;2023-09-12T02:50:30;48.160683;43.122574;57.982910;;
79288;Laerm;68737;53.946;27.634;2023-09-12T02:53:00;47.736961;43.388130;56.143730;;
79288;Laerm;68737;53.946;27.634;2023-09-12T02:55:30;51.287231;42.799301;62.581219;;
79288;Laerm;68737;53.946;27.634;2023-09-12T02:58:00;45.783524;41.845001;51.332199;;
79288;Laerm;68737;53.946;27.634;2023-09-12T03:00:30;46.425125;42.467148;55.815063;;
79288;Laerm;68737;53.946;27.634;2023-09-12T03:03:00;48.207527;42.628845;56.850128;;
79288;Laerm;68737;53.946;27.634;2023-09-12T03:05:30;49.566757;42.817184;60.850113;;
79288;Laerm;68737;53.946;27.634;2023-09-12T03:08:00;48.326683;43.706856;57.465149;;
79288;Laerm;68737;53.946;27.634;2023-09-12T03:10:30;49.463638;43.772446;59.925716;;
79288;Laerm;68737;53.946;27.634;2023-09-12T03:13:00;49.681023;44.884293;60.893166;;
79288;Laerm;68737;53.946;27.634;2023-09-12T03:15:35;51.193321;44.562401;62.993053;;
79288;Laerm;68737;53.946;27.634;2023-09-12T03:18:00;51.872070;45.712891;62.259106;;
79288;Laerm;68737;53.946;27.634;2023-09-12T03:20:30;49.741600;44.687157;59.530350;;
79288;Laerm;68737;53.946;27.634;2023-09-12T03:23:00;49.896576;44.661850;58.006622;;
79288;Laerm;68737;53.946;27.634;2023-09-12T03:25:34;53.280602;45.787865;72.190392;;
79288;Laerm;68737;53.946;27.634;2023-09-12T03:28:00;52.432327;46.588478;65.564888;;
79288;Laerm;68737;53.946;27.634;2023-09-12T03:30:31;50.755157;45.567657;64.851700;;
79288;Laerm;68737;53.946;27.634;2023-09-12T03:33:00;52.621834;47.051109;63.221958;;
79288;Laerm;68737;53.946;27.634;2023-09-12T03:35:31;51.714111;45.576660;60.636051;;
79288;Laerm;68737;53.946;27.634;2023-09-12T03:38:00;51.918709;46.801430;67.039154;;
79288;Laerm;68737;53.946;27.634;2023-09-12T03:40:30;53.399590;45.778221;68.201775;;
79288;Laerm;68737;53.946;27.634;2023-09-12T03:43:00;52.539742;45.705200;60.096794;;
79288;Laerm;68737;53.946;27.634;2023-09-12T03:45:30;51.973099;46.843147;63.928307;;
79288;Laerm;68737;53.946;27.634;2023-09-12T03:48:00;52.408440;46.434105;61.198261;;
79288;Laerm;68737;53.946;27.634;2023-09-12T03:50:30;55.912498;47.406693;76.134903;;
79288;Laerm;68737;53.946;27.634;2023-09-12T03:53:00;55.164032;47.711998;75.365402;;
79288;Laerm;68737;53.946;27.634;2023-09-12T03:55:30;54.013206;47.294357;62.144772;;
79288;Laerm;68737;53.946;27.634;2023-09-12T03:58:00;52.674484;47.741470;58.633537;;
79288;Laerm;68737;53.946;27.634;2023-09-12T04:00:30;54.385223;47.989578;63.729836;;
79288;Laerm;68737;53.946;27.634;2023-09-12T04:03:00;54.299461;48.237534;64.953262;;
79288;Laerm;68737;53.946;27.634;2023-09-12T04:05:30;52.222115;47.413773;58.790619;;
79288;Laerm;68737;53.946;27.634;2023-09-12T04:08:00;53.894196;48.492432;60.119015;;
79288;Laerm;68737;53.946;27.634;2023-09-12T04:10:30;54.626816;48.197479;63.144604;;
79288;Laerm;68737;53.946;27.634;2023-09-12T04:13:00;54.666100;48.289810;62.526600;;
79288;Laerm;68737;53.946;27.634;2023-09-12T04:15:30;55.805130;49.232330;66.512299;;
79288;Laerm;68737;53.946;27.634;2023-09-12T04:18:00;55.775421;49.628319;63.401161;;
79288;Laerm;68737;53.946;27.634;2023-09-12T04:20:30;56.697754;49.895668;71.930962;;
79288;Laerm;68737;53.946;27.634;2023-09-12T04:23:00;57.175484;51.655365;63.507210;;
79288;Laerm;68737;53.946;27.634;2023-09-12T04:25:30;58.651253;51.107864;67.792023;;
79288;Laerm;68737;53.946;27.634;2023-09-12T04:28:00;55.946022;50.109673;62.860142;;
79288;Laerm;68737;53.946;27.634;2023-09-12T04:30:30;56.419495;50.057632;62.351158;;
79288;Laerm;68737;53.946;27.634;2023-09-12T04:33:00;56.566551;51.426994;62.458118;;
79288;Laerm;68737;53.946;27.634;2023-09-12T04:35:32;56.952484;49.678719;62.644936;;
79288;Laerm;68737;53.946;27.634;2023-09-12T04:38:00;56.815430;50.546875;62.303768;;
79288;Laerm;68737;53.946;27.634;2023-09-12T04:40:30;56.212936;50.754852;63.323185;;
79288;Laerm;68737;53.946;27.634;2023-09-12T04:43:00;57.648170;52.520760;64.829224;;
79288;Laerm;68737;53.946;27.634;2023-09-12T04:45:32;57.665604;52.921822;64.748734;;
79288;Laerm;68737;53.946;27.634;2023-09-12T04:48:00;57.598244;51.480301;80.431427;;
79288;Laerm;68737;53.946;27.634;2023-09-12T04:50:30;59.255093;52.007210;73.330826;;
79288;Laerm;68737;53.946;27.634;2023-09-12T04:53:00;58.418686;53.682541;67.139160;;
79288;Laerm;68737;53.946;27.634;2023-09-12T04:55:30;57.337204;51.261070;62.690708;;
79288;Laerm;68737;53.946;27.634;2023-09-12T04:58:00;56.350128;50.999893;62.275806;;
79288;Laerm;68737;53.946;27.634;2023-09-12T05:00:30;58.120636;51.662857;69.187424;;
79288;Laerm;68737;53.946;27.634;2023-09-12T05:03:00;56.996391;51.890877;63.484337;;
79288;Laerm;68737;53.946;27.634;2023-09-12T05:05:30;58.677292;52.062263;70.922302;;
79288;Laerm;68737;53.946;27.634;2023-09-12T05:08:00;57.048294;51.709915;67.997986;;
79288;Laerm;68737;53.946;27.634;2023-09-12T05:10:30;57.946518;51.750801;73.342712;;
79288;Laerm;68737;53.946;27.634;2023-09-12T05:13:00;57.425072;50.856094;64.459984;;
79288;Laerm;68737;53.946;27.634;2023-09-12T05:15:30;56.914261;52.021721;63.634422;;
79288;Laerm;68737;53.946;27.634;2023-09-12T05:18:00;56.978973;50.727547;63.153290;;
79288;Laerm;68737;53.946;27.634;2023-09-12T05:20:30;56.901642;50.820869;63.007072;;
79288;Laerm;68737;53.946;27.634;2023-09-12T05:23:00;58.517357;51.507896;70.397064;;
79288;Laerm;68737;53.946;27.634;2023-09-12T05:25:30;56.789452;50.424446;64.920868;;
79288;Laerm;68737;53.946;27.634;2023-09-12T05:28:00;57.038185;49.737762;64.733780;;
79288;Laerm;68737;53.946;27.634;2023-09-12T05:30:30;56.777649;50.347038;63.138832;;
79288;Laerm;68737;53.946;27.634;2023-09-12T05:33:00;56.190132;50.774040;61.388897;;
79288;Laerm;68737;53.946;27.634;2023-09-12T05:35:30;56.737862;49.989494;63.651951;;
79288;Laerm;68737;53.946;27.634;2023-09-12T05:38:00;58.974976;49.789322;71.445526;;
79288;Laerm;68737;53.946;27.634;2023-09-12T05:40:30;57.066864;50.334480;63.662670;;
79288;Laerm;68737;53.946;27.634;2023-09-12T05:43:00;58.030533;50.004143;68.279091;;
79288;Laerm;68737;53.946;27.634;2023-09-12T05:45:30;57.740166;48.544884;66.518814;;
79288;Laerm;68737;53.946;27.634;2023-09-12T05:48:00;57.031906;48.519051;64.976349;;
79288;Laerm;68737;53.946;27.634;2023-09-12T05:50:30;56.161453;48.604118;62.047947;;
79288;Laerm;68737;53.946;27.634;2023-09-12T05:53:00;56.189880;49.206490;63.819363;;
79288;Laerm;68737;53.946;27.634;2023-09-12T05:55:30;58.000244;51.407440;68.485634;;
79288;Laerm;68737;53.946;27.634;2023-09-12T05:58:00;58.117592;48.873276;67.705078;;
79288;Laerm;68737;53.946;27.634;2023-09-12T06:00:30;56.775360;50.418907;65.769043;;
79288;Laerm;68737;53.946;27.634;2023-09-12T06:03:00;59.212429;51.090202;71.059570;;
79288;Laerm;68737;53.946;27.634;2023-09-12T06:05:30;57.014389;47.865082;68.422791;;
79288;Laerm;68737;53.946;27.634;2023-09-12T06:08:00;55.626343;47.685722;62.533546;;
79288;Laerm;68737;53.946;27.634;2023-09-12T06:10:30;56.277161;47.205666;62.923965;;
79288;Laerm;68737;53.946;27.634;2023-09-12T06:13:00;55.972000;49.897652;62.373909;;
79288;Laerm;68737;53.946;27.634;2023-09-12T06:15:30;56.331139;49.149071;65.585945;;
79288;Laerm;68737;53.946;27.634;2023-09-12T06:18:00;55.871498;48.975037;66.846764;;
79288;Laerm;68737;53.946;27.634;2023-09-12T06:20:30;56.521172;47.554764;66.862091;;
79288;Laerm;68737;53.946;27.634;2023-09-12T06:23:00;54.728699;47.296654;61.066616;;
79288;Laerm;68737;53.946;27.634;2023-09-12T06:25:30;56.166237;48.097977;61.856808;;
79288;Laerm;68737;53.946;27.634;2023-09-12T06:28:00;54.324738;48.030510;62.262486;;
79288;Laerm;68737;53.946;27.634;2023-09-12T06:30:30;56.447319;49.960327;65.845108;;
79288;Laerm;68737;53.946;27.634;2023-09-12T06:33:00;58.794296;50.119530;72.155647;;
79288;Laerm;68737;53.946;27.634;2023-09-12T06:35:31;55.286453;48.230782;63.020584;;
79288;Laerm;68737;53.946;27.634;2023-09-12T06:38:00;59.021648;49.487358;68.780899;;
79288;Laerm;68737;53.946;27.634;2023-09-12T06:40:30;54.972733;47.897728;62.751106;;
79288;Laerm;68737;53.946;27.634;2023-09-12T06:43:00;55.623245;48.063721;62.231506;;
79288;Laerm;68737;53.946;27.634;2023-09-12T06:45:30;57.734306;48.848984;69.578186;;
79288;Laerm;68737;53.946;27.634;2023-09-12T06:48:00;55.001343;47.567879;62.760300;;
79288;Laerm;68737;53.946;27.634;2023-09-12T06:50:30;53.509003;47.976730;60.370922;;
79288;Laerm;68737;53.946;27.634;2023-09-12T06:53:00;55.337227;47.591682;65.883942;;
79288;Laerm;68737;53.946;27.634;2023-09-12T06:55:30;55.267586;46.957893;61.554882;;
79288;Laerm;68737;53.946;27.634;2023-09-12T06:58:00;57.173759;47.594040;69.658173;;
79288;Laerm;68737;53.946;27.634;2023-09-12T07:00:30;57.833504;49.932335;69.121086;;
79288;Laerm;68737;53.946;27.634;2023-09-12T07:03:00;54.499191;46.773628;61.494743;;
79288;Laerm;68737;53.946;27.634;2023-09-12T07:05:30;56.326019;48.360519;64.072922;;
79288;Laerm;68737;53.946;27.634;2023-09-12T07:08:00;54.716705;47.891327;64.422546;;
79288;Laerm;68737;53.946;27.634;2023-09-12T07:10:30;57.000000;49.120430;68.716034;;
79288;Laerm;68737;53.946;27.634;2023-09-12T07:13:00;55.441742;46.676308;62.365181;;
79288;Laerm;68737;53.946;27.634;2023-09-12T07:15:30;53.993233;47.597176;60.055000;;
79288;Laerm;68737;53.946;27.634;2023-09-12T07:18:00;54.375305;47.306023;65.130699;;
79288;Laerm;68737;53.946;27.634;2023-09-12T07:20:30;55.391876;46.145958;65.568604;;
79288;Laerm;68737;53.946;27.634;2023-09-12T07:23:00;54.654373;45.520424;66.532471;;
79288;Laerm;68737;53.946;27.634;2023-09-12T07:25:30;57.951843;47.576607;77.439590;;
79288;Laerm;68737;53.946;27.634;2023-09-12T07:28:00;54.407722;46.443085;63.799503;;
79288;Laerm;68737;53.946;27.634;2023-09-12T07:30:30;54.784241;47.278893;62.952274;;
79288;Laerm;68737;53.946;27.634;2023-09-12T07:33:00;58.467392;50.285927;69.011948;;
79288;Laerm;68737;53.946;27.634;2023-09-12T07:35:30;55.135910;48.604462;62.976501;;
79288;Laerm;68737;53.946;27.634;2023-09-12T07:38:00;59.982235;46.974152;69.399727;;
79288;Laerm;68737;53.946;27.634;2023-09-12T07:40:30;54.238953;46.106430;62.965508;;
79288;Laerm;68737;53.946;27.634;2023-09-12T07:43:00;55.265831;46.309196;64.765945;;
79288;Laerm;68737;53.946;27.634;2023-09-12T07:45:30;52.419518;45.971184;61.545902;;
79288;Laerm;68737;53.946;27.634;2023-09-12T07:48:00;54.359589;46.546059;62.289669;;
79288;Laerm;68737;53.946;27.634;2023-09-12T07:50:30;56.994690;47.922806;70.160400;;
79288;Laerm;68737;53.946;27.634;2023-09-12T07:53:00;60.438259;48.556877;71.292534;;
79288;Laerm;68737;53.946;27.634;2023-09-12T07:55:30;54.978088;46.725815;73.479599;;
79288;Laerm;68737;53.946;27.634;2023-09-12T07:58:00;54.412140;46.582520;62.487774;;
79288;Laerm;68737;53.946;27.634;2023-09-12T08:00:30;55.683441;46.178856;64.589577;;
79288;Laerm;68737;53.946;27.634;2023-09-12T08:03:00;55.840836;48.444801;62.288197;;
79288;Laerm;68737;53.946;27.634;2023-09-12T08:05:30;55.126823;47.043274;62.717911;;
79288;Laerm;68737;53.946;27.634;2023-09-12T08:08:00;56.807350;48.357697;70.788177;;
79288;Laerm;68737;53.946;27.634;2023-09-12T08:10:30;58.261055;50.786552;71.224594;;
79288;Laerm;68737;53.946;27.634;2023-09-12T08:13:00;54.717270;46.580833;61.942852;;
79288;Laerm;68737;53.946;27.634;2023-09-12T08:15:30;53.362869;46.486679;60.963715;;
79288;Laerm;68737;53.946;27.634;2023-09-12T08:18:00;55.831810;47.182861;65.088181;;
79288;Laerm;68737;53.946;27.634;2023-09-12T08:20:30;55.799416;46.786179;63.413418;;
79288;Laerm;68737;53.946;27.634;2023-09-12T08:23:00;55.286491;47.236389;64.989471;;
79288;Laerm;68737;53.946;27.634;2023-09-12T08:25:30;55.141357;47.356621;67.440598;;
79288;Laerm;68737;53.946;27.634;2023-09-12T08:28:00;56.003891;48.393326;64.044144;;
79288;Laerm;68737;53.946;27.634;2023-09-12T08:30:30;57.061821;48.735756;68.405777;;
79288;Laerm;68737;53.946;27.634;2023-09-12T08:33:00;60.326569;46.920547;75.260574;;
79288;Laerm;68737;53.946;27.634;2023-09-12T08:35:30;60.390251;49.025864;71.145142;;
79288;Laerm;68737;53.946;27.634;2023-09-12T08:38:00;54.914993;47.454857;63.356472;;
79288;Laerm;68737;53.946;27.634;2023-09-12T08:40:30;56.318520;47.418861;68.763062;;
79288;Laerm;68737;53.946;27.634;2023-09-12T08:43:00;56.129097;48.717621;64.119598;;
79288;Laerm;68737;53.946;27.634;2023-09-12T08:45:30;54.330582;46.477745;60.796051;;
79288;Laerm;68737;53.946;27.634;2023-09-12T08:48:01;56.340080;48.268143;64.397614;;
79288;Laerm;68737;53.946;27.634;2023-09-12T08:50:30;56.569511;48.570740;66.835030;;
79288;Laerm;68737;53.946;27.634;2023-09-12T08:53:00;55.440109;48.380333;65.837463;;
79288;Laerm;68737;53.946;27.634;2023-09-12T08:55:30;54.703903;47.943687;71.629440;;
79288;Laerm;68737;53.946;27.634;2023-09-12T08:58:00;55.348961;45.612930;63.801441;;
79288;Laerm;68737;53.946;27.634;2023-09-12T09:00:30;55.914726;45.434265;68.304924;;
79288;Laerm;68737;53.946;27.634;2023-09-12T09:03:00;54.654091;46.837692;63.030025;;
79288;Laerm;68737;53.946;27.634;2023-09-12T09:05:30;57.073936;46.710892;65.810349;;
79288;Laerm;68737;53.946;27.634;2023-09-12T09:08:00;54.884270;48.281036;61.891705;;
79288;Laerm;68737;53.946;27.634;2023-09-12T09:10:29;55.514244;48.378952;63.104786;;
79288;Laerm;68737;53.946;27.634;2023-09-12T09:13:01;56.856339;50.455894;67.083649;;
79288;Laerm;68737;53.946;27.634;2023-09-12T09:15:30;55.296265;47.899940;75.062927;;
79288;Laerm;68737;53.946;27.634;2023-09-12T09:18:01;58.332855;47.295380;72.277596;;
79288;Laerm;68737;53.946;27.634;2023-09-12T09:25:29;55.492203;47.761894;65.110062;;
79288;Laerm;68737;53.946;27.634;2023-09-12T09:33:00;55.122078;47.521523;61.730297;;
79288;Laerm;68737;53.946;27.634;2023-09-12T09:35:29;55.427444;46.468300;71.257355;;
79288;Laerm;68737;53.946;27.634;2023-09-12T09:37:59;55.122223;45.980507;72.447418;;
79288;Laerm;68737;53.946;27.634;2023-09-12T09:40:29;54.641296;46.486801;63.305077;;
79288;Laerm;68737;53.946;27.634;2023-09-12T09:43:00;54.662346;46.560486;61.323681;;
79288;Laerm;68737;53.946;27.634;2023-09-12T09:45:30;54.554550;46.708084;63.216579;;
79288;Laerm;68737;53.946;27.634;2023-09-12T09:50:29;55.342796;48.518242;63.519337;;
79288;Laerm;68737;53.946;27.634;2023-09-12T09:52:59;54.780815;47.506889;62.184532;;
79288;Laerm;68737;53.946;27.634;2023-09-12T09:55:30;57.204056;46.840744;74.952194;;
79288;Laerm;68737;53.946;27.634;2023-09-12T09:57:59;56.419731;48.937912;65.343567;;
79288;Laerm;68737;53.946;27.634;2023-09-12T10:00:29;55.403183;45.216003;65.069916;;
79288;Laerm;68737;53.946;27.634;2023-09-12T10:02:59;56.163475;45.573586;63.497665;;
79288;Laerm;68737;53.946;27.634;2023-09-12T10:05:29;55.330956;47.638504;64.443710;;
79288;Laerm;68737;53.946;27.634;2023-09-12T10:07:59;55.985115;48.534492;62.203163;;
79288;Laerm;68737;53.946;27.634;2023-09-12T10:10:29;55.606972;47.082878;72.443329;;
79288;Laerm;68737;53.946;27.634;2023-09-12T10:12:59;56.672066;47.053322;66.080612;;
79288;Laerm;68737;53.946;27.634;2023-09-12T10:15:30;54.443657;48.356369;65.274445;;
79288;Laerm;68737;53.946;27.634;2023-09-12T10:18:00;55.306793;48.609085;62.095242;;
79288;Laerm;68737;53.946;27.634;2023-09-12T10:23:03;57.308578;47.058380;67.266937;;
79288;Laerm;68737;53.946;27.634;2023-09-12T10:25:29;57.523911;48.192650;74.036331;;
79288;Laerm;68737;53.946;27.634;2023-09-12T10:27:59;57.632973;48.553894;72.174995;;
79288;Laerm;68737;53.946;27.634;2023-09-12T10:30:29;62.109104;47.796082;75.620735;;
79288;Laerm;68737;53.946;27.634;2023-09-12T10:33:04;55.804756;49.069176;62.796501;;
79288;Laerm;68737;53.946;27.634;2023-09-12T10:35:30;55.752663;49.434723;68.006950;;
79288;Laerm;68737;53.946;27.634;2023-09-12T10:38:00;57.876724;51.631752;66.000595;;
79288;Laerm;68737;53.946;27.634;2023-09-12T10:40:29;60.028587;49.994949;72.333626;;
79288;Laerm;68737;53.946;27.634;2023-09-12T10:42:59;58.911079;50.817940;69.120514;;
79288;Laerm;68737;53.946;27.634;2023-09-12T10:45:30;59.179070;51.424438;66.372406;;
79288;Laerm;68737;53.946;27.634;2023-09-12T10:47:59;57.079948;49.279846;62.729267;;
79288;Laerm;68737;53.946;27.634;2023-09-12T10:50:29;56.044838;47.549606;70.522644;;
79288;Laerm;68737;53.946;27.634;2023-09-12T10:55:29;60.084534;50.204636;68.193085;;
79288;Laerm;68737;53.946;27.634;2023-09-12T10:58:00;56.603584;50.881638;63.524708;;
79288;Laerm;68737;53.946;27.634;2023-09-12T11:00:29;56.552780;46.981918;67.174149;;
79288;Laerm;68737;53.946;27.634;2023-09-12T11:03:35;54.822388;48.366386;65.199158;;
79288;Laerm;68737;53.946;27.634;2023-09-12T11:08:00;58.697479;50.196808;66.043060;;
79288;Laerm;68737;53.946;27.634;2023-09-12T11:10:29;57.324249;49.237198;63.977627;;
79288;Laerm;68737;53.946;27.634;2023-09-12T11:12:59;60.548809;48.512894;77.670250;;
79288;Laerm;68737;53.946;27.634;2023-09-12T11:15:29;56.751526;48.808250;66.943634;;
79288;Laerm;68737;53.946;27.634;2023-09-12T11:18:00;59.495857;49.564705;71.881645;;
79288;Laerm;68737;53.946;27.634;2023-09-12T11:23:09;66.818398;54.500305;84.429550;;
79288;Laerm;68737;53.946;27.634;2023-09-12T11:25:29;66.347504;57.840317;81.600761;;
79288;Laerm;68737;53.946;27.634;2023-09-12T11:30:29;58.115059;52.830376;71.338333;;
79288;Laerm;68737;53.946;27.634;2023-09-12T11:33:02;57.418045;51.270103;64.028000;;
79288;Laerm;68737;53.946;27.634;2023-09-12T11:35:30;58.185562;49.999924;68.047852;;
79288;Laerm;68737;53.946;27.634;2023-09-12T11:37:59;63.232639;48.740372;86.922607;;
79288;Laerm;68737;53.946;27.634;2023-09-12T11:43:00;56.052299;47.675575;67.330917;;
79288;Laerm;68737;53.946;27.634;2023-09-12T11:45:29;55.944405;49.287567;62.003040;;
79288;Laerm;68737;53.946;27.634;2023-09-12T11:48:00;57.182671;49.427910;69.334427;;
79288;Laerm;68737;53.946;27.634;2023-09-12T11:50:30;56.992424;47.467140;67.741043;;
79288;Laerm;68737;53.946;27.634;2023-09-12T11:53:00;57.039757;48.878716;66.061371;;
79288;Laerm;68737;53.946;27.634;2023-09-12T11:58:04;54.361588;45.886703;62.606739;;
79288;Laerm;68737;53.946;27.634;2023-09-12T12:00:29;57.309700;47.983833;67.601166;;
79288;Laerm;68737;53.946;27.634;2023-09-12T12:02:59;56.325714;50.180061;64.489845;;
79288;Laerm;68737;53.946;27.634;2023-09-12T12:05:29;56.748123;48.702675;68.033073;;
79288;Laerm;68737;53.946;27.634;2023-09-12T12:07:59;58.874550;48.228821;71.262695;;
79288;Laerm;68737;53.946;27.634;2023-09-12T12:10:29;56.701134;45.597778;69.571190;;
79288;Laerm;68737;53.946;27.634;2023-09-12T12:12:59;55.377632;47.590515;63.806072;;
79288;Laerm;68737;53.946;27.634;2023-09-12T12:15:29;55.013420;48.708389;61.841560;;
79288;Laerm;68737;53.946;27.634;2023-09-12T12:17:59;55.733536;49.082268;61.897938;;
79288;Laerm;68737;53.946;27.634;2023-09-12T12:20:29;56.527901;50.571869;63.842644;;
79288;Laerm;68737;53.946;27.634;2023-09-12T12:22:59;55.224907;48.818687;64.156815;;
79288;Laerm;68737;53.946;27.634;2023-09-12T12:28:00;55.389038;46.001610;64.143433;;